createdAt,value
2023-02-25T00:00:14.847Z,18.29
2023-02-25T00:01:15.448Z,18.31
2023-02-25T00:02:16.136Z,18.29
2023-02-25T00:03:16.798Z,18.25
2023-02-25T00:04:17.485Z,18.25
2023-02-25T00:05:18.077Z,18.20
2023-02-25T00:06:18.679Z,18.22
2023-02-25T00:07:19.280Z,18.22
2023-02-25T00:08:19.932Z,18.19
2023-02-25T00:09:20.536Z,18.20
2023-02-25T00:10:21.143Z,18.19
2023-02-25T00:11:21.761Z,18.18
2023-02-25T00:12:22.347Z,18.19
2023-02-25T00:13:22.955Z,18.20
2023-02-25T00:14:23.544Z,18.13
2023-02-25T00:15:24.149Z,18.13
2023-02-25T00:16:25.156Z,18.15
2023-02-25T00:17:25.972Z,18.18
2023-02-25T00:18:26.583Z,18.11
2023-02-25T00:19:27.177Z,18.05
2023-02-25T00:20:27.782Z,18.10
2023-02-25T00:21:28.385Z,18.20
2023-02-25T00:22:29.005Z,18.20
2023-02-25T00:23:29.576Z,18.15
2023-02-25T00:24:30.174Z,18.08
2023-02-25T00:25:30.779Z,18.05
2023-02-25T00:26:31.453Z,18.11
2023-02-25T00:27:32.049Z,18.10
2023-02-25T00:28:32.643Z,18.13
2023-02-25T00:29:34.084Z,18.13
2023-02-25T00:30:35.708Z,18.15
2023-02-25T00:31:36.677Z,18.05
2023-02-25T00:32:38.240Z,18.11
2023-02-25T00:33:38.841Z,18.07
2023-02-25T00:34:39.494Z,18.00
2023-02-25T00:35:40.100Z,18.07
2023-02-25T00:36:40.773Z,18.07
2023-02-25T00:37:41.414Z,18.07
2023-02-25T00:38:42.067Z,17.97
2023-02-25T00:39:42.705Z,17.97
2023-02-25T00:40:43.304Z,18.07
2023-02-25T00:41:43.901Z,18.00
2023-02-25T00:42:44.499Z,17.95
2023-02-25T00:43:45.166Z,18.03
2023-02-25T00:44:45.767Z,17.98
2023-02-25T00:45:46.371Z,17.97
2023-02-25T00:46:47.038Z,18.00
2023-02-25T00:47:47.700Z,17.98
2023-02-25T00:48:48.301Z,17.98
2023-02-25T00:49:48.969Z,18.00
2023-02-25T00:50:49.573Z,18.01
2023-02-25T00:51:50.167Z,17.97
2023-02-25T00:52:50.767Z,17.95
2023-02-25T00:53:51.363Z,18.01
2023-02-25T00:54:51.956Z,17.97
2023-02-25T00:55:52.561Z,18.01
2023-02-25T00:56:53.155Z,17.95
2023-02-25T00:57:53.753Z,18.00
2023-02-25T00:58:54.365Z,17.97
2023-02-25T00:59:54.961Z,18.04
2023-02-25T01:00:55.563Z,18.01
2023-02-25T01:01:56.270Z,18.01
2023-02-25T01:02:57.117Z,18.04
2023-02-25T01:03:57.745Z,17.98
2023-02-25T01:04:58.403Z,17.98
2023-02-25T01:05:59.050Z,17.97
2023-02-25T01:06:59.651Z,18.00
2023-02-25T01:08:00.246Z,17.97
2023-02-25T01:09:00.898Z,17.87
2023-02-25T01:10:01.486Z,17.95
2023-02-25T01:11:02.078Z,17.98
2023-02-25T01:12:02.685Z,17.89
2023-02-25T01:13:03.309Z,17.87
2023-02-25T01:14:03.920Z,17.85
2023-02-25T01:15:04.541Z,17.95
2023-02-25T01:16:05.176Z,17.87
2023-02-25T01:17:05.798Z,17.87
2023-02-25T01:18:06.392Z,17.85
2023-02-25T01:19:06.988Z,17.90
2023-02-25T01:20:08.391Z,17.92
2023-02-25T01:21:08.994Z,17.86
2023-02-25T01:22:09.589Z,17.83
2023-02-25T01:23:10.184Z,17.86
2023-02-25T01:24:10.795Z,17.86
2023-02-25T01:25:11.384Z,17.87
2023-02-25T01:26:11.988Z,17.85
2023-02-25T01:27:12.588Z,17.82
2023-02-25T01:28:13.178Z,17.87
2023-02-25T01:29:13.782Z,17.82
2023-02-25T01:30:14.385Z,17.87
2023-02-25T01:31:15.088Z,17.82
2023-02-25T01:32:15.796Z,17.85
2023-02-25T01:33:17.334Z,17.87
2023-02-25T01:34:17.932Z,17.83
2023-02-25T01:35:19.388Z,17.83
2023-02-25T01:36:20.215Z,17.86
2023-02-25T01:37:20.963Z,17.82
2023-02-25T01:38:21.552Z,17.86
2023-02-25T01:39:22.156Z,17.83
2023-02-25T01:40:22.826Z,17.80
2023-02-25T01:41:23.428Z,17.79
2023-02-25T01:42:24.101Z,17.83
2023-02-25T01:43:24.687Z,17.83
2023-02-25T01:44:25.301Z,17.86
2023-02-25T01:45:25.997Z,17.79
2023-02-25T01:46:26.654Z,17.79
2023-02-25T01:47:28.101Z,17.78
2023-02-25T01:48:28.694Z,17.78
2023-02-25T01:49:29.295Z,17.80
2023-02-25T01:50:30.008Z,17.85
2023-02-25T01:51:30.604Z,17.82
2023-02-25T01:52:31.282Z,17.78
2023-02-25T01:53:31.883Z,17.78
2023-02-25T01:54:32.479Z,17.76
2023-02-25T01:55:33.093Z,17.82
2023-02-25T01:56:33.686Z,17.74
2023-02-25T01:57:34.292Z,17.83
2023-02-25T01:58:34.892Z,17.68
2023-02-25T01:59:35.497Z,17.72
2023-02-25T02:00:36.170Z,17.76
2023-02-25T02:01:36.764Z,17.72
2023-02-25T02:02:37.389Z,17.79
2023-02-25T02:03:37.995Z,17.68
2023-02-25T02:04:38.591Z,17.70
2023-02-25T02:05:39.214Z,17.72
2023-02-25T02:06:39.866Z,17.74
2023-02-25T02:07:40.469Z,17.80
2023-02-25T02:08:41.075Z,17.76
2023-02-25T02:09:41.665Z,17.82
2023-02-25T02:10:42.317Z,17.76
2023-02-25T02:11:42.966Z,17.65
2023-02-25T02:12:43.561Z,17.67
2023-02-25T02:13:44.169Z,17.74
2023-02-25T02:14:44.769Z,17.76
2023-02-25T02:15:45.372Z,17.76
2023-02-25T02:16:46.037Z,17.70
2023-02-25T02:17:46.635Z,17.79
2023-02-25T02:18:47.226Z,17.78
2023-02-25T02:19:47.834Z,17.76
2023-02-25T02:20:48.430Z,17.71
2023-02-25T02:21:49.035Z,17.72
2023-02-25T02:22:49.644Z,17.70
2023-02-25T02:23:50.292Z,17.71
2023-02-25T02:24:50.897Z,17.72
2023-02-25T02:25:51.580Z,17.70
2023-02-25T02:26:52.198Z,17.70
2023-02-25T02:27:53.600Z,17.72
2023-02-25T02:28:54.192Z,17.71
2023-02-25T02:29:54.798Z,17.72
2023-02-25T02:30:55.475Z,17.70
2023-02-25T02:31:56.207Z,17.74
2023-02-25T02:32:56.831Z,17.67
2023-02-25T02:33:57.425Z,17.70
2023-02-25T02:34:58.027Z,17.65
2023-02-25T02:35:58.676Z,17.64
2023-02-25T02:36:59.284Z,17.67
2023-02-25T02:37:59.873Z,17.70
2023-02-25T02:39:00.468Z,17.70
2023-02-25T02:40:01.118Z,17.67
2023-02-25T02:41:01.717Z,17.67
2023-02-25T02:42:02.310Z,17.78
2023-02-25T02:43:02.907Z,17.65
2023-02-25T02:44:03.539Z,17.68
2023-02-25T02:45:04.130Z,17.68
2023-02-25T02:46:04.835Z,17.72
2023-02-25T02:47:06.301Z,17.68
2023-02-25T02:48:06.904Z,17.71
2023-02-25T02:49:07.519Z,17.68
2023-02-25T02:50:08.105Z,17.67
2023-02-25T02:51:08.707Z,17.68
2023-02-25T02:52:09.407Z,17.67
2023-02-25T02:53:10.011Z,17.67
2023-02-25T02:54:10.613Z,17.71
2023-02-25T02:55:11.210Z,17.67
2023-02-25T02:56:11.875Z,17.74
2023-02-25T02:57:12.487Z,17.68
2023-02-25T02:58:13.920Z,17.65
2023-02-25T02:59:14.580Z,17.64
2023-02-25T03:00:15.193Z,17.65
2023-02-25T03:01:15.836Z,17.63
2023-02-25T03:02:16.535Z,17.70
2023-02-25T03:03:17.902Z,17.70
2023-02-25T03:04:18.594Z,17.67
2023-02-25T03:05:19.177Z,17.70
2023-02-25T03:06:19.768Z,17.60
2023-02-25T03:07:20.372Z,17.63
2023-02-25T03:08:20.964Z,17.64
2023-02-25T03:09:21.571Z,17.68
2023-02-25T03:10:22.169Z,17.60
2023-02-25T03:11:22.764Z,17.63
2023-02-25T03:12:23.379Z,17.65
2023-02-25T03:13:24.045Z,17.63
2023-02-25T03:14:24.637Z,17.59
2023-02-25T03:15:25.241Z,17.63
2023-02-25T03:16:26.192Z,17.56
2023-02-25T03:17:26.906Z,17.65
2023-02-25T03:18:27.509Z,17.59
2023-02-25T03:19:29.016Z,17.65
2023-02-25T03:20:29.613Z,17.60
2023-02-25T03:21:30.213Z,17.63
2023-02-25T03:22:30.809Z,17.57
2023-02-25T03:23:31.420Z,17.52
2023-02-25T03:24:32.023Z,17.57
2023-02-25T03:25:32.617Z,17.60
2023-02-25T03:26:33.294Z,17.57
2023-02-25T03:27:33.899Z,17.56
2023-02-25T03:28:34.488Z,17.63
2023-02-25T03:29:35.084Z,17.60
2023-02-25T03:30:35.727Z,17.60
2023-02-25T03:31:36.351Z,17.57
2023-02-25T03:32:37.604Z,17.51
2023-02-25T03:33:37.610Z,17.59
2023-02-25T03:34:38.216Z,17.54
2023-02-25T03:35:38.808Z,17.48
2023-02-25T03:36:40.334Z,17.51
2023-02-25T03:37:40.982Z,17.54
2023-02-25T03:38:41.583Z,17.52
2023-02-25T03:39:42.171Z,17.52
2023-02-25T03:40:42.776Z,17.52
2023-02-25T03:41:43.581Z,17.56
2023-02-25T03:42:44.171Z,17.52
2023-02-25T03:43:44.765Z,17.54
2023-02-25T03:44:45.380Z,17.52
2023-02-25T03:45:45.993Z,17.65
2023-02-25T03:46:46.594Z,17.63
2023-02-25T03:47:47.188Z,17.57
2023-02-25T03:48:47.783Z,17.48
2023-02-25T03:49:48.374Z,17.54
2023-02-25T03:50:48.990Z,17.57
2023-02-25T03:51:49.580Z,17.54
2023-02-25T03:52:50.177Z,17.63
2023-02-25T03:53:50.770Z,17.51
2023-02-25T03:54:52.170Z,17.48
2023-02-25T03:55:52.819Z,17.52
2023-02-25T03:56:53.412Z,17.44
2023-02-25T03:57:54.024Z,17.48
2023-02-25T03:58:54.639Z,17.44
2023-02-25T03:59:55.217Z,17.48
2023-02-25T04:00:55.826Z,17.45
2023-02-25T04:01:56.423Z,17.44
2023-02-25T04:02:57.030Z,17.49
2023-02-25T04:03:57.697Z,17.42
2023-02-25T04:04:58.388Z,17.44
2023-02-25T04:05:58.987Z,17.45
2023-02-25T04:06:59.646Z,17.49
2023-02-25T04:08:00.246Z,17.44
2023-02-25T04:09:01.046Z,17.46
2023-02-25T04:10:01.654Z,17.42
2023-02-25T04:11:02.304Z,17.46
2023-02-25T04:12:02.901Z,17.49
2023-02-25T04:13:03.573Z,17.39
2023-02-25T04:14:04.195Z,17.46
2023-02-25T04:15:04.831Z,17.44
2023-02-25T04:16:05.492Z,17.45
2023-02-25T04:17:06.120Z,17.48
2023-02-25T04:18:06.710Z,17.39
2023-02-25T04:19:07.306Z,17.45
2023-02-25T04:20:07.911Z,17.46
2023-02-25T04:21:08.513Z,17.46
2023-02-25T04:22:09.127Z,17.46
2023-02-25T04:23:09.748Z,17.39
2023-02-25T04:24:10.347Z,17.44
2023-02-25T04:25:10.958Z,17.46
2023-02-25T04:26:11.625Z,17.46
2023-02-25T04:27:12.225Z,17.44
2023-02-25T04:28:13.702Z,17.42
2023-02-25T04:29:14.303Z,17.36
2023-02-25T04:30:14.902Z,17.36
2023-02-25T04:31:15.617Z,17.39
2023-02-25T04:32:16.453Z,17.42
2023-02-25T04:33:17.073Z,17.44
2023-02-25T04:34:17.677Z,17.42
2023-02-25T04:35:18.287Z,17.44
2023-02-25T04:36:18.882Z,17.33
2023-02-25T04:37:19.484Z,17.42
2023-02-25T04:38:20.136Z,17.45
2023-02-25T04:39:20.747Z,17.41
2023-02-25T04:40:21.343Z,17.41
2023-02-25T04:41:21.930Z,17.38
2023-02-25T04:42:22.534Z,17.38
2023-02-25T04:43:23.128Z,17.36
2023-02-25T04:44:23.772Z,17.48
2023-02-25T04:45:26.416Z,17.46
2023-02-25T04:46:26.405Z,17.41
2023-02-25T04:47:28.071Z,17.44
2023-02-25T04:48:28.678Z,17.42
2023-02-25T04:49:29.277Z,17.42
2023-02-25T04:50:29.890Z,17.44
2023-02-25T04:51:30.481Z,17.39
2023-02-25T04:52:31.080Z,17.42
2023-02-25T04:53:31.681Z,17.42
2023-02-25T04:54:32.285Z,17.31
2023-02-25T04:55:32.876Z,17.44
2023-02-25T04:56:33.538Z,17.41
2023-02-25T04:57:34.141Z,17.41
2023-02-25T04:58:34.807Z,17.42
2023-02-25T04:59:35.423Z,17.46
2023-02-25T05:00:36.008Z,17.42
2023-02-25T05:01:36.653Z,17.42
2023-02-25T05:02:37.250Z,17.38
2023-02-25T05:03:37.942Z,17.39
2023-02-25T05:04:38.608Z,17.30
2023-02-25T05:05:39.216Z,17.39
2023-02-25T05:06:39.994Z,17.39
2023-02-25T05:07:40.600Z,17.30
2023-02-25T05:08:41.273Z,17.33
2023-02-25T05:09:41.864Z,17.36
2023-02-25T05:10:42.459Z,17.33
2023-02-25T05:11:43.063Z,17.36
2023-02-25T05:12:43.711Z,17.36
2023-02-25T05:13:44.306Z,17.33
2023-02-25T05:14:44.900Z,17.26
2023-02-25T05:15:45.533Z,17.31
2023-02-25T05:16:46.120Z,17.30
2023-02-25T05:17:46.715Z,17.33
2023-02-25T05:18:47.311Z,17.31
2023-02-25T05:19:47.913Z,17.30
2023-02-25T05:20:48.517Z,17.24
2023-02-25T05:21:49.118Z,17.24
2023-02-25T05:22:49.709Z,17.26
2023-02-25T05:23:50.334Z,17.39
2023-02-25T05:24:50.912Z,17.29
2023-02-25T05:25:51.506Z,17.31
2023-02-25T05:26:52.101Z,17.31
2023-02-25T05:27:52.704Z,17.24
2023-02-25T05:28:53.321Z,17.29
2023-02-25T05:29:54.003Z,17.33
2023-02-25T05:30:54.635Z,17.23
2023-02-25T05:31:55.530Z,17.29
2023-02-25T05:32:56.297Z,17.31
2023-02-25T05:33:56.903Z,17.34
2023-02-25T05:34:57.503Z,17.33
2023-02-25T05:35:58.095Z,17.38
2023-02-25T05:36:58.699Z,17.30
2023-02-25T05:37:59.304Z,17.34
2023-02-25T05:38:59.905Z,17.38
2023-02-25T05:40:00.548Z,17.34
2023-02-25T05:41:01.142Z,17.30
2023-02-25T05:42:01.743Z,17.34
2023-02-25T05:43:02.359Z,17.33
2023-02-25T05:44:02.940Z,17.38
2023-02-25T05:45:03.583Z,17.31
2023-02-25T05:46:04.201Z,17.38
2023-02-25T05:47:04.836Z,17.29
2023-02-25T05:48:05.450Z,17.30
2023-02-25T05:49:06.060Z,17.30
2023-02-25T05:50:07.510Z,17.24
2023-02-25T05:51:08.161Z,17.27
2023-02-25T05:52:08.768Z,17.31
2023-02-25T05:53:09.358Z,17.31
2023-02-25T05:54:09.960Z,17.30
2023-02-25T05:55:10.566Z,17.30
2023-02-25T05:56:11.239Z,17.26
2023-02-25T05:57:11.837Z,17.27
2023-02-25T05:58:12.436Z,17.24
2023-02-25T05:59:13.042Z,17.30
2023-02-25T06:00:13.710Z,17.29
2023-02-25T06:01:14.313Z,17.33
2023-02-25T06:02:14.945Z,17.27
2023-02-25T06:03:15.610Z,17.29
2023-02-25T06:04:16.185Z,17.26
2023-02-25T06:05:16.794Z,17.24
2023-02-25T06:06:17.395Z,17.23
2023-02-25T06:07:17.995Z,17.24
2023-02-25T06:08:18.588Z,17.24
2023-02-25T06:09:19.191Z,17.23
2023-02-25T06:10:19.846Z,17.26
2023-02-25T06:11:20.427Z,17.20
2023-02-25T06:12:21.021Z,17.27
2023-02-25T06:13:21.625Z,17.33
2023-02-25T06:14:22.225Z,17.27
2023-02-25T06:15:22.868Z,17.27
2023-02-25T06:16:23.886Z,17.24
2023-02-25T06:17:24.667Z,17.22
2023-02-25T06:18:25.328Z,17.23
2023-02-25T06:19:25.918Z,17.12
2023-02-25T06:20:26.663Z,17.20
2023-02-25T06:21:27.268Z,17.24
2023-02-25T06:22:27.864Z,17.22
2023-02-25T06:23:28.461Z,17.22
2023-02-25T06:24:29.076Z,17.22
2023-02-25T06:25:29.768Z,17.12
2023-02-25T06:26:30.359Z,17.23
2023-02-25T06:27:30.955Z,17.12
2023-02-25T06:28:31.565Z,17.16
2023-02-25T06:29:32.228Z,17.20
2023-02-25T06:30:33.689Z,17.23
2023-02-25T06:31:34.285Z,17.14
2023-02-25T06:32:35.163Z,17.29
2023-02-25T06:33:35.994Z,17.12
2023-02-25T06:34:36.588Z,17.19
2023-02-25T06:35:37.252Z,17.24
2023-02-25T06:36:37.915Z,17.20
2023-02-25T06:37:38.571Z,17.20
2023-02-25T06:38:39.172Z,17.16
2023-02-25T06:39:39.775Z,17.27
2023-02-25T06:40:40.365Z,17.09
2023-02-25T06:41:40.966Z,17.19
2023-02-25T06:42:41.561Z,17.16
2023-02-25T06:43:42.160Z,17.23
2023-02-25T06:44:42.758Z,17.23
2023-02-25T06:45:43.377Z,17.15
2023-02-25T06:46:43.986Z,17.20
2023-02-25T06:47:44.579Z,17.11
2023-02-25T06:48:45.170Z,17.15
2023-02-25T06:49:45.771Z,17.19
2023-02-25T06:50:46.368Z,17.15
2023-02-25T06:51:47.085Z,17.08
2023-02-25T06:52:47.687Z,17.19
2023-02-25T06:53:48.290Z,17.11
2023-02-25T06:54:48.892Z,17.20
2023-02-25T06:55:49.484Z,17.22
2023-02-25T06:56:50.087Z,17.19
2023-02-25T06:57:50.687Z,17.19
2023-02-25T06:58:51.288Z,17.20
2023-02-25T06:59:51.911Z,17.19
2023-02-25T07:00:52.545Z,17.16
2023-02-25T07:01:53.529Z,17.11
2023-02-25T07:02:54.090Z,17.14
2023-02-25T07:03:54.687Z,17.08
2023-02-25T07:04:55.377Z,17.16
2023-02-25T07:05:55.972Z,17.19
2023-02-25T07:06:56.569Z,17.16
2023-02-25T07:07:57.161Z,17.16
2023-02-25T07:08:57.768Z,17.04
2023-02-25T07:09:58.444Z,17.16
2023-02-25T07:10:59.039Z,17.14
2023-02-25T07:11:59.633Z,17.16
2023-02-25T07:13:00.235Z,17.26
2023-02-25T07:14:00.857Z,17.14
2023-02-25T07:15:01.528Z,17.16
2023-02-25T07:16:02.260Z,17.15
2023-02-25T07:17:02.863Z,17.16
2023-02-25T07:18:03.465Z,17.14
2023-02-25T07:19:04.067Z,17.12
2023-02-25T07:20:04.732Z,17.08
2023-02-25T07:21:05.327Z,17.14
2023-02-25T07:22:05.923Z,17.12
2023-02-25T07:23:06.527Z,17.04
2023-02-25T07:24:07.124Z,17.12
2023-02-25T07:25:07.801Z,17.12
2023-02-25T07:26:08.437Z,17.14
2023-02-25T07:27:09.027Z,17.11
2023-02-25T07:28:09.624Z,17.09
2023-02-25T07:29:10.218Z,17.09
2023-02-25T07:30:10.815Z,17.15
2023-02-25T07:31:11.545Z,17.04
2023-02-25T07:32:12.325Z,17.14
2023-02-25T07:33:13.051Z,17.09
2023-02-25T07:34:13.711Z,17.02
2023-02-25T07:35:14.306Z,17.09
2023-02-25T07:36:14.906Z,17.08
2023-02-25T07:37:16.350Z,17.08
2023-02-25T07:38:17.001Z,17.05
2023-02-25T07:39:17.608Z,17.08
2023-02-25T07:40:18.265Z,17.09
2023-02-25T07:41:18.853Z,17.04
2023-02-25T07:42:20.306Z,17.06
2023-02-25T07:43:20.908Z,17.06
2023-02-25T07:44:21.566Z,17.12
2023-02-25T07:45:22.169Z,17.08
2023-02-25T07:46:22.906Z,17.02
2023-02-25T07:47:23.494Z,17.01
2023-02-25T07:48:24.096Z,17.11
2023-02-25T07:49:24.691Z,17.11
2023-02-25T07:50:25.291Z,17.08
2023-02-25T07:51:26.250Z,17.05
2023-02-25T07:52:26.558Z,17.11
2023-02-25T07:53:27.157Z,17.05
2023-02-25T07:54:27.754Z,16.99
2023-02-25T07:55:28.360Z,17.02
2023-02-25T07:56:28.962Z,17.08
2023-02-25T07:57:29.558Z,17.05
2023-02-25T07:58:30.208Z,17.08
2023-02-25T07:59:30.864Z,17.05
2023-02-25T08:00:31.457Z,17.02
2023-02-25T08:01:32.073Z,17.09
2023-02-25T08:02:32.684Z,17.05
2023-02-25T08:03:33.278Z,16.99
2023-02-25T08:04:33.974Z,17.01
2023-02-25T08:05:34.578Z,17.02
2023-02-25T08:06:35.184Z,17.04
2023-02-25T08:07:35.787Z,17.02
2023-02-25T08:08:36.378Z,17.05
2023-02-25T08:09:36.972Z,17.02
2023-02-25T08:10:37.578Z,17.08
2023-02-25T08:11:38.244Z,17.04
2023-02-25T08:12:38.839Z,17.06
2023-02-25T08:13:39.439Z,17.05
2023-02-25T08:14:40.033Z,17.05
2023-02-25T08:15:40.666Z,16.97
2023-02-25T08:16:41.283Z,17.04
2023-02-25T08:17:41.934Z,17.05
2023-02-25T08:18:42.518Z,17.05
2023-02-25T08:19:43.117Z,17.01
2023-02-25T08:20:43.708Z,17.02
2023-02-25T08:21:44.380Z,17.04
2023-02-25T08:22:44.981Z,17.02
2023-02-25T08:23:45.575Z,16.93
2023-02-25T08:24:46.234Z,17.02
2023-02-25T08:25:46.849Z,16.99
2023-02-25T08:26:47.438Z,16.91
2023-02-25T08:27:48.039Z,16.97
2023-02-25T08:28:48.642Z,17.02
2023-02-25T08:29:49.235Z,16.99
2023-02-25T08:30:49.861Z,16.96
2023-02-25T08:31:50.680Z,17.01
2023-02-25T08:32:51.485Z,17.02
2023-02-25T08:33:53.187Z,16.96
2023-02-25T08:34:53.603Z,16.99
2023-02-25T08:35:54.204Z,16.97
2023-02-25T08:36:54.811Z,16.97
2023-02-25T08:37:55.407Z,16.97
2023-02-25T08:38:56.052Z,17.02
2023-02-25T08:39:56.650Z,16.99
2023-02-25T08:40:57.251Z,16.97
2023-02-25T08:41:57.897Z,16.96
2023-02-25T08:42:58.556Z,16.96
2023-02-25T08:43:59.238Z,16.97
2023-02-25T08:44:59.929Z,16.94
2023-02-25T08:46:01.410Z,16.96
2023-02-25T08:47:02.125Z,16.96
2023-02-25T08:48:03.548Z,16.93
2023-02-25T08:49:04.155Z,16.93
2023-02-25T08:50:04.812Z,16.91
2023-02-25T08:51:05.459Z,16.87
2023-02-25T08:52:06.130Z,16.94
2023-02-25T08:53:06.742Z,16.99
2023-02-25T08:54:07.335Z,16.89
2023-02-25T08:55:07.990Z,16.91
2023-02-25T08:56:08.593Z,16.87
2023-02-25T08:57:09.186Z,16.89
2023-02-25T08:58:09.792Z,16.97
2023-02-25T08:59:10.391Z,17.05
2023-02-25T09:00:10.979Z,16.91
2023-02-25T09:01:11.645Z,16.89
2023-02-25T09:02:12.265Z,16.90
2023-02-25T09:03:12.866Z,16.93
2023-02-25T09:04:13.535Z,16.89
2023-02-25T09:05:14.146Z,16.89
2023-02-25T09:06:14.728Z,16.90
2023-02-25T09:07:15.324Z,16.90
2023-02-25T09:08:15.925Z,17.01
2023-02-25T09:09:16.538Z,17.02
2023-02-25T09:10:17.280Z,16.94
2023-02-25T09:11:18.690Z,16.99
2023-02-25T09:12:19.330Z,16.93
2023-02-25T09:13:19.928Z,16.90
2023-02-25T09:14:20.518Z,16.90
2023-02-25T09:15:21.116Z,16.94
2023-02-25T09:16:21.772Z,17.01
2023-02-25T09:17:22.374Z,16.90
2023-02-25T09:18:22.971Z,16.99
2023-02-25T09:19:23.626Z,16.96
2023-02-25T09:20:24.233Z,16.90
2023-02-25T09:21:25.222Z,16.91
2023-02-25T09:22:25.969Z,16.93
2023-02-25T09:23:26.565Z,16.90
2023-02-25T09:24:27.168Z,16.90
2023-02-25T09:25:27.763Z,16.89
2023-02-25T09:26:28.365Z,16.97
2023-02-25T09:27:28.962Z,16.93
2023-02-25T09:28:29.567Z,16.91
2023-02-25T09:29:30.170Z,16.91
2023-02-25T09:30:30.761Z,16.90
2023-02-25T09:31:31.486Z,16.90
2023-02-25T09:32:32.277Z,16.96
2023-02-25T09:33:32.948Z,16.97
2023-02-25T09:34:33.544Z,16.87
2023-02-25T09:35:34.145Z,16.94
2023-02-25T09:36:34.748Z,16.97
2023-02-25T09:37:35.332Z,16.99
2023-02-25T09:38:36.799Z,16.93
2023-02-25T09:39:37.394Z,16.99
2023-02-25T09:40:37.987Z,17.04
2023-02-25T09:41:38.590Z,17.05
2023-02-25T09:42:39.196Z,16.96
2023-02-25T09:43:39.789Z,16.97
2023-02-25T09:44:41.180Z,16.89
2023-02-25T09:45:41.799Z,16.96
2023-02-25T09:46:42.401Z,16.96
2023-02-25T09:47:43.034Z,16.96
2023-02-25T09:48:46.180Z,16.91
2023-02-25T09:49:45.402Z,17.01
2023-02-25T09:50:46.047Z,17.01
2023-02-25T09:51:46.689Z,16.90
2023-02-25T09:52:47.290Z,16.99
2023-02-25T09:53:47.893Z,17.04
2023-02-25T09:54:48.491Z,16.93
2023-02-25T09:55:49.087Z,16.94
2023-02-25T09:56:49.684Z,16.87
2023-02-25T09:57:50.288Z,16.93
2023-02-25T09:58:50.884Z,16.93
2023-02-25T09:59:51.487Z,16.94
2023-02-25T10:00:54.124Z,16.93
2023-02-25T10:01:53.756Z,16.91
2023-02-25T10:02:54.474Z,16.96
2023-02-25T10:03:55.144Z,16.90
2023-02-25T10:04:55.736Z,16.93
2023-02-25T10:05:56.335Z,16.99
2023-02-25T10:06:56.936Z,16.97
2023-02-25T10:07:57.537Z,16.94
2023-02-25T10:08:58.152Z,16.99
2023-02-25T10:09:58.742Z,16.87
2023-02-25T10:10:59.344Z,17.01
2023-02-25T10:11:59.947Z,16.94
2023-02-25T10:13:00.539Z,16.91
2023-02-25T10:14:01.139Z,16.97
2023-02-25T10:15:01.749Z,16.99
2023-02-25T10:16:02.322Z,16.97
2023-02-25T10:17:03.049Z,16.96
2023-02-25T10:18:03.584Z,16.81
2023-02-25T10:19:04.185Z,16.90
2023-02-25T10:20:04.784Z,16.89
2023-02-25T10:21:05.389Z,16.93
2023-02-25T10:22:05.979Z,16.90
2023-02-25T10:23:06.566Z,16.91
2023-02-25T10:24:07.168Z,16.90
2023-02-25T10:25:07.769Z,16.96
2023-02-25T10:26:08.373Z,16.90
2023-02-25T10:27:08.974Z,16.96
2023-02-25T10:28:09.638Z,16.93
2023-02-25T10:29:10.232Z,16.87
2023-02-25T10:30:10.902Z,16.87
2023-02-25T10:31:12.449Z,16.96
2023-02-25T10:32:13.266Z,16.97
2023-02-25T10:33:13.983Z,16.96
2023-02-25T10:34:14.650Z,16.97
2023-02-25T10:35:15.245Z,16.89
2023-02-25T10:36:15.838Z,16.91
2023-02-25T10:37:17.238Z,16.99
2023-02-25T10:38:17.832Z,16.89
2023-02-25T10:39:18.432Z,16.93
2023-02-25T10:40:19.066Z,16.97
2023-02-25T10:41:19.688Z,16.90
2023-02-25T10:42:20.365Z,16.89
2023-02-25T10:43:20.959Z,16.93
2023-02-25T10:44:21.564Z,16.90
2023-02-25T10:45:22.159Z,16.93
2023-02-25T10:46:22.771Z,16.86
2023-02-25T10:47:23.362Z,16.90
2023-02-25T10:48:23.957Z,17.01
2023-02-25T10:49:24.553Z,16.91
2023-02-25T10:50:38.805Z,16.97
2023-02-25T10:51:26.741Z,16.97
2023-02-25T10:52:27.332Z,16.91
2023-02-25T10:53:27.983Z,16.97
2023-02-25T10:54:28.639Z,16.97
2023-02-25T10:55:30.164Z,17.02
2023-02-25T10:56:30.757Z,16.97
2023-02-25T10:57:31.350Z,16.97
2023-02-25T10:59:47.368Z,16.97
2023-02-25T11:00:48.024Z,16.99
2023-02-25T11:01:48.677Z,16.94
2023-02-25T11:02:50.262Z,17.01
2023-02-25T11:07:10.308Z,17.06
2023-02-25T11:08:24.320Z,17.02
2023-02-25T11:09:24.922Z,17.01
2023-02-25T11:10:25.525Z,17.08
2023-02-25T11:11:26.562Z,17.06
2023-02-25T11:12:27.367Z,17.05
2023-02-25T11:13:27.955Z,17.02
2023-02-25T11:14:28.556Z,17.11
2023-02-25T11:15:43.217Z,17.02
2023-02-25T11:16:30.769Z,17.08
2023-02-25T11:17:31.433Z,17.05
2023-02-25T11:18:32.050Z,17.09
2023-02-25T11:19:32.656Z,17.05
2023-02-25T11:20:33.257Z,17.05
2023-02-25T11:21:33.880Z,17.06
2023-02-25T11:22:34.579Z,17.01
2023-02-25T11:23:35.152Z,17.01
2023-02-25T11:24:35.742Z,17.01
2023-02-25T11:25:36.349Z,16.99
2023-02-25T11:26:36.934Z,17.01
2023-02-25T11:27:39.309Z,16.99
2023-02-25T11:28:39.950Z,17.02
2023-02-25T11:29:40.544Z,17.02
2023-02-25T11:30:41.249Z,17.08
2023-02-25T11:32:58.194Z,17.08
2023-02-25T11:33:59.625Z,17.02
2023-02-25T11:37:16.326Z,17.02
2023-02-25T11:38:16.917Z,17.08
2023-02-25T11:39:17.521Z,17.01
2023-02-25T11:40:18.162Z,17.08
2023-02-25T11:41:18.752Z,17.04
2023-02-25T11:42:19.358Z,17.02
2023-02-25T11:43:19.954Z,17.09
2023-02-25T11:44:20.618Z,17.04
2023-02-25T11:45:21.213Z,17.02
2023-02-25T11:46:22.117Z,17.05
2023-02-25T11:47:22.915Z,16.99
2023-02-25T11:48:23.503Z,16.99
2023-02-25T11:49:24.102Z,17.04
2023-02-25T11:50:24.704Z,17.05
2023-02-25T11:51:25.294Z,17.09
2023-02-25T11:52:25.890Z,17.02
2023-02-25T11:53:26.526Z,17.08
2023-02-25T11:54:27.175Z,17.08
2023-02-25T11:55:27.780Z,17.11
2023-02-25T11:56:28.363Z,17.02
2023-02-25T11:57:29.040Z,17.12
2023-02-25T11:58:29.734Z,17.06
2023-02-25T11:59:30.388Z,17.05
2023-02-25T12:00:31.040Z,17.11
2023-02-25T12:01:31.640Z,17.09
2023-02-25T12:02:32.268Z,17.05
2023-02-25T12:03:32.955Z,17.08
2023-02-25T12:04:34.188Z,17.02
2023-02-25T12:05:35.770Z,17.08
2023-02-25T12:06:36.360Z,17.08
2023-02-25T12:08:14.558Z,17.02
2023-02-25T12:09:16.983Z,17.08
2023-02-25T12:10:17.532Z,17.05
2023-02-25T12:11:18.126Z,17.02
2023-02-25T12:12:18.720Z,17.09
2023-02-25T12:13:19.326Z,17.05
2023-02-25T12:14:19.925Z,17.04
2023-02-25T12:15:20.527Z,17.08
2023-02-25T12:16:21.203Z,17.02
2023-02-25T12:17:21.859Z,17.02
2023-02-25T12:18:22.456Z,17.04
2023-02-25T12:19:23.053Z,17.02
2023-02-25T12:20:56.347Z,17.05
2023-02-25T12:21:56.939Z,17.02
2023-02-25T12:22:57.542Z,17.02
2023-02-25T12:23:58.153Z,17.08
2023-02-25T12:24:59.537Z,17.04
2023-02-25T12:26:00.139Z,17.05
2023-02-25T12:27:00.739Z,17.02
2023-02-25T12:28:01.350Z,17.04
2023-02-25T12:29:01.938Z,16.99
2023-02-25T12:30:02.543Z,17.05
2023-02-25T12:31:03.253Z,17.02
2023-02-25T12:32:03.939Z,17.02
2023-02-25T12:33:05.423Z,17.05
2023-02-25T12:34:05.998Z,17.04
2023-02-25T12:35:06.596Z,17.06
2023-02-25T12:36:07.294Z,16.99
2023-02-25T12:37:07.946Z,17.09
2023-02-25T12:38:08.546Z,17.02
2023-02-25T12:39:09.138Z,17.02
2023-02-25T12:40:09.734Z,17.02
2023-02-25T12:41:10.338Z,17.04
2023-02-25T12:42:10.938Z,16.94
2023-02-25T12:43:11.600Z,17.04
2023-02-25T12:44:12.201Z,17.02
2023-02-25T12:45:12.806Z,17.08
2023-02-25T12:46:13.473Z,16.96
2023-02-25T12:47:14.055Z,16.96
2023-02-25T12:48:14.658Z,17.05
2023-02-25T12:49:15.262Z,17.05
2023-02-25T12:50:15.862Z,16.96
2023-02-25T12:51:16.547Z,17.05
2023-02-25T12:52:17.567Z,17.01
2023-02-25T12:53:18.202Z,17.08
2023-02-25T12:55:34.424Z,17.02
2023-02-25T12:56:35.032Z,17.01
2023-02-25T12:57:36.486Z,17.05
2023-02-25T12:58:37.095Z,17.05
2023-02-25T12:59:37.687Z,17.06
2023-02-25T13:00:38.353Z,17.01
2023-02-25T13:01:38.956Z,17.02
2023-02-25T13:02:39.563Z,17.02
2023-02-25T13:03:41.075Z,17.08
2023-02-25T13:04:41.701Z,17.06
2023-02-25T13:05:42.294Z,17.04
2023-02-25T13:06:42.992Z,16.99
2023-02-25T13:07:43.586Z,17.04
2023-02-25T13:08:44.189Z,16.97
2023-02-25T13:09:45.600Z,16.99
2023-02-25T13:10:46.194Z,17.05
2023-02-25T13:12:10.444Z,16.99